createdAt,value
2022-10-06T00:00:25.725Z,0.00
2022-10-06T00:01:25.770Z,0.00
2022-10-06T00:02:25.749Z,0.00
2022-10-06T00:03:25.701Z,0.00
2022-10-06T00:04:25.709Z,0.00
2022-10-06T00:05:25.679Z,0.00
2022-10-06T00:06:25.659Z,0.00
2022-10-06T00:07:28.641Z,0.00
2022-10-06T00:08:26.122Z,0.00
2022-10-06T00:09:25.634Z,0.00
2022-10-06T00:10:25.614Z,0.00
2022-10-06T00:11:25.625Z,0.00
2022-10-06T00:12:25.606Z,0.00
2022-10-06T00:13:25.585Z,0.00
2022-10-06T00:14:25.565Z,0.00
2022-10-06T00:15:25.593Z,0.00
2022-10-06T00:16:25.564Z,0.00
2022-10-06T00:17:25.542Z,0.00
2022-10-06T00:18:25.992Z,0.00
2022-10-06T00:19:25.523Z,0.00
2022-10-06T00:20:25.513Z,0.00
2022-10-06T00:21:25.606Z,0.00
2022-10-06T00:22:28.495Z,0.00
2022-10-06T00:23:25.507Z,0.00
2022-10-06T00:24:25.480Z,0.00
2022-10-06T00:25:25.462Z,0.00
2022-10-06T00:26:25.497Z,0.00
2022-10-06T00:27:25.457Z,0.00
2022-10-06T00:28:25.828Z,0.00
2022-10-06T00:29:25.417Z,0.00
2022-10-06T00:30:25.412Z,0.00
2022-10-06T00:31:25.478Z,0.00
2022-10-06T00:32:25.389Z,0.00
2022-10-06T00:33:25.380Z,0.00
2022-10-06T00:34:25.372Z,0.00
2022-10-06T00:35:25.346Z,0.00
2022-10-06T00:36:25.384Z,0.00
2022-10-06T00:37:28.351Z,0.00
2022-10-06T00:38:25.586Z,0.00
2022-10-06T00:39:25.323Z,0.00
2022-10-06T00:40:25.311Z,0.00
2022-10-06T00:41:25.290Z,0.00
2022-10-06T00:42:25.281Z,0.00
2022-10-06T00:43:25.279Z,0.00
2022-10-06T00:44:25.297Z,0.00
2022-10-06T00:45:25.238Z,0.00
2022-10-06T00:46:25.321Z,0.00
2022-10-06T00:47:25.232Z,0.00
2022-10-06T00:48:25.498Z,0.00
2022-10-06T00:49:25.238Z,0.00
2022-10-06T00:50:25.219Z,0.00
2022-10-06T00:51:25.179Z,0.00
2022-10-06T00:52:28.263Z,0.00
2022-10-06T00:53:25.184Z,0.00
2022-10-06T00:54:25.154Z,0.00
2022-10-06T00:55:25.144Z,0.00
2022-10-06T00:56:25.142Z,0.00
2022-10-06T00:57:25.123Z,0.00
2022-10-06T00:58:25.602Z,0.00
2022-10-06T00:59:25.101Z,0.00
2022-10-06T01:00:25.095Z,0.00
2022-10-06T01:01:25.213Z,0.00
2022-10-06T01:02:25.091Z,0.00
2022-10-06T01:03:25.164Z,0.00
2022-10-06T01:04:25.054Z,0.00
2022-10-06T01:05:25.036Z,0.00
2022-10-06T01:06:25.022Z,0.00
2022-10-06T01:07:28.013Z,0.00
2022-10-06T01:08:25.267Z,0.00
2022-10-06T01:09:24.996Z,0.00
2022-10-06T01:10:25.000Z,0.00
2022-10-06T01:11:24.966Z,0.00
2022-10-06T01:12:24.966Z,0.00
2022-10-06T01:13:24.985Z,0.00
2022-10-06T01:14:25.088Z,0.00
2022-10-06T01:15:24.943Z,0.00
2022-10-06T01:16:24.939Z,0.00
2022-10-06T01:17:24.909Z,0.00
2022-10-06T01:18:25.100Z,0.00
2022-10-06T01:19:24.889Z,0.00
2022-10-06T01:20:24.877Z,0.00
2022-10-06T01:21:24.907Z,0.00
2022-10-06T01:22:27.857Z,0.00
2022-10-06T01:23:24.858Z,0.00
2022-10-06T01:24:24.837Z,0.00
2022-10-06T01:25:24.836Z,0.00
2022-10-06T01:26:24.809Z,0.00
2022-10-06T01:27:24.819Z,0.00
2022-10-06T01:28:24.931Z,0.00
2022-10-06T01:29:24.791Z,0.00
2022-10-06T01:30:24.800Z,0.00
2022-10-06T01:31:24.831Z,0.00
2022-10-06T01:32:24.749Z,0.00
2022-10-06T01:33:24.740Z,0.00
2022-10-06T01:34:24.741Z,0.00
2022-10-06T01:35:24.752Z,0.00
2022-10-06T01:36:24.711Z,0.00
2022-10-06T01:37:27.705Z,0.00
2022-10-06T01:38:24.703Z,0.00
2022-10-06T01:39:24.681Z,0.00
2022-10-06T01:40:24.685Z,0.00
2022-10-06T01:41:24.651Z,0.00
2022-10-06T01:42:24.645Z,0.00
2022-10-06T01:43:24.635Z,0.00
2022-10-06T01:44:24.631Z,0.00
2022-10-06T01:45:24.620Z,0.00
2022-10-06T01:46:24.717Z,0.00
2022-10-06T01:47:24.593Z,0.00
2022-10-06T01:48:24.675Z,0.00
2022-10-06T01:49:24.586Z,0.00
2022-10-06T01:50:24.563Z,0.00
2022-10-06T01:51:24.649Z,0.00
2022-10-06T01:52:27.534Z,0.00
2022-10-06T01:53:24.548Z,0.00
2022-10-06T01:54:24.524Z,0.00
2022-10-06T01:55:24.507Z,0.00
2022-10-06T01:56:24.504Z,0.00
2022-10-06T01:57:24.487Z,0.00
2022-10-06T01:58:24.487Z,0.00
2022-10-06T01:59:24.480Z,0.00
2022-10-06T02:00:24.465Z,0.00
2022-10-06T02:01:24.475Z,0.00
2022-10-06T02:02:24.465Z,0.00
2022-10-06T02:03:24.427Z,0.00
2022-10-06T02:04:24.445Z,0.00
2022-10-06T02:05:24.438Z,0.00
2022-10-06T02:06:24.463Z,0.00
2022-10-06T02:07:27.393Z,0.00
2022-10-06T02:08:24.397Z,0.00
2022-10-06T02:09:24.366Z,0.00
2022-10-06T02:10:24.359Z,0.00
2022-10-06T02:11:24.341Z,0.00
2022-10-06T02:12:24.331Z,0.00
2022-10-06T02:13:24.327Z,0.00
2022-10-06T02:14:24.320Z,0.00
2022-10-06T02:15:24.304Z,0.00
2022-10-06T02:16:24.416Z,0.00
2022-10-06T02:17:24.289Z,0.00
2022-10-06T02:18:24.268Z,0.00
2022-10-06T02:19:24.262Z,0.00
2022-10-06T02:20:24.251Z,0.00
2022-10-06T02:21:24.264Z,0.00
2022-10-06T02:22:27.230Z,0.00
2022-10-06T02:23:24.230Z,0.00
2022-10-06T02:24:24.221Z,0.00
2022-10-06T02:25:24.208Z,0.00
2022-10-06T02:26:24.182Z,0.00
2022-10-06T02:27:24.171Z,0.00
2022-10-06T02:28:24.208Z,0.00
2022-10-06T02:29:24.152Z,0.00
2022-10-06T02:30:24.153Z,0.00
2022-10-06T02:31:24.192Z,0.00
2022-10-06T02:32:24.174Z,0.00
2022-10-06T02:33:24.116Z,0.00
2022-10-06T02:34:24.104Z,0.00
2022-10-06T02:35:24.105Z,0.00
2022-10-06T02:36:24.085Z,0.00
2022-10-06T02:37:27.105Z,0.00
2022-10-06T02:38:24.064Z,0.00
2022-10-06T02:39:24.051Z,0.00
2022-10-06T02:40:24.034Z,0.00
2022-10-06T02:41:24.026Z,0.00
2022-10-06T02:42:24.029Z,0.00
2022-10-06T02:43:24.006Z,0.00
2022-10-06T02:44:23.996Z,0.00
2022-10-06T02:45:23.994Z,0.00
2022-10-06T02:46:24.024Z,0.00
2022-10-06T02:47:23.978Z,0.00
2022-10-06T02:48:24.058Z,0.00
2022-10-06T02:49:23.954Z,0.00
2022-10-06T02:50:23.932Z,0.00
2022-10-06T02:51:23.929Z,0.00
2022-10-06T02:52:26.915Z,0.00
2022-10-06T02:53:23.926Z,0.00
2022-10-06T02:54:23.894Z,0.00
2022-10-06T02:55:23.880Z,0.00
2022-10-06T02:56:23.874Z,0.00
2022-10-06T02:57:23.859Z,0.00
2022-10-06T02:58:23.849Z,0.00
2022-10-06T02:59:23.941Z,0.00
2022-10-06T03:00:23.828Z,0.00
2022-10-06T03:01:23.849Z,0.00
2022-10-06T03:02:23.950Z,0.00
2022-10-06T03:03:23.797Z,0.00
2022-10-06T03:04:23.818Z,0.00
2022-10-06T03:05:23.783Z,0.00
2022-10-06T03:06:23.773Z,0.00
2022-10-06T03:07:26.762Z,0.00
2022-10-06T03:08:23.786Z,0.00
2022-10-06T03:09:23.761Z,0.00
2022-10-06T03:10:23.720Z,0.00
2022-10-06T03:11:23.712Z,0.00
2022-10-06T03:12:23.703Z,0.00
2022-10-06T03:13:23.736Z,0.00
2022-10-06T03:14:23.684Z,0.00
2022-10-06T03:15:23.684Z,0.00
2022-10-06T03:16:23.743Z,0.00
2022-10-06T03:17:23.652Z,0.00
2022-10-06T03:18:23.652Z,0.00
2022-10-06T03:19:23.632Z,0.00
2022-10-06T03:20:23.614Z,0.00
2022-10-06T03:21:23.615Z,0.00
2022-10-06T03:22:26.594Z,0.00
2022-10-06T03:23:23.606Z,0.00
2022-10-06T03:24:23.613Z,0.00
2022-10-06T03:25:23.568Z,0.00
2022-10-06T03:26:23.556Z,0.00
2022-10-06T03:27:23.543Z,0.00
2022-10-06T03:28:23.639Z,0.00
2022-10-06T03:29:23.534Z,0.00
2022-10-06T03:30:23.505Z,0.00
2022-10-06T03:31:23.596Z,0.00
2022-10-06T03:32:23.493Z,0.00
2022-10-06T03:33:23.484Z,0.00
2022-10-06T03:34:23.466Z,0.00
2022-10-06T03:35:23.485Z,0.00
2022-10-06T03:36:23.451Z,0.00
2022-10-06T03:37:26.438Z,0.00
2022-10-06T03:38:23.448Z,0.00
2022-10-06T03:39:23.420Z,0.00
2022-10-06T03:40:23.410Z,0.00
2022-10-06T03:41:23.410Z,0.00
2022-10-06T03:42:23.394Z,0.00
2022-10-06T03:43:23.379Z,0.00
2022-10-06T03:44:23.370Z,0.00
2022-10-06T03:45:23.367Z,0.00
2022-10-06T03:46:23.439Z,0.00
2022-10-06T03:47:23.329Z,0.00
2022-10-06T03:48:23.321Z,0.00
2022-10-06T03:49:23.314Z,0.00
2022-10-06T03:50:23.299Z,0.00
2022-10-06T03:51:23.292Z,0.00
2022-10-06T03:52:26.318Z,0.00
2022-10-06T03:53:23.290Z,0.00
2022-10-06T03:54:23.259Z,0.00
2022-10-06T03:55:23.250Z,0.00
2022-10-06T03:56:23.240Z,0.00
2022-10-06T03:57:23.322Z,0.00
2022-10-06T03:58:23.212Z,0.00
2022-10-06T03:59:23.222Z,0.00
2022-10-06T04:00:23.197Z,0.00
2022-10-06T04:01:26.117Z,0.00
2022-10-06T04:02:23.275Z,0.00
2022-10-06T04:03:23.173Z,0.00
2022-10-06T04:04:23.154Z,0.00
2022-10-06T04:05:23.253Z,0.00
2022-10-06T04:06:23.143Z,0.00
2022-10-06T04:07:26.140Z,0.00
2022-10-06T04:08:23.133Z,0.00
2022-10-06T04:09:23.152Z,0.00
2022-10-06T04:10:23.093Z,0.00
2022-10-06T04:11:23.074Z,0.00
2022-10-06T04:12:23.074Z,0.00
2022-10-06T04:13:23.067Z,0.00
2022-10-06T04:14:23.085Z,0.00
2022-10-06T04:15:23.145Z,0.00
2022-10-06T04:16:23.092Z,0.00
2022-10-06T04:17:23.024Z,0.00
2022-10-06T04:18:23.015Z,0.00
2022-10-06T04:19:23.026Z,0.00
2022-10-06T04:20:22.997Z,0.00
2022-10-06T04:21:22.979Z,0.00
2022-10-06T04:22:25.983Z,0.00
2022-10-06T04:23:22.981Z,0.00
2022-10-06T04:24:22.980Z,0.00
2022-10-06T04:25:22.939Z,0.00
2022-10-06T04:26:22.940Z,0.00
2022-10-06T04:27:22.925Z,0.00
2022-10-06T04:28:22.936Z,0.00
2022-10-06T04:29:22.939Z,0.00
2022-10-06T04:30:22.907Z,0.00
2022-10-06T04:31:22.934Z,0.00
2022-10-06T04:32:22.859Z,0.00
2022-10-06T04:33:22.865Z,0.00
2022-10-06T04:34:22.950Z,0.00
2022-10-06T04:35:22.841Z,0.00
2022-10-06T04:36:22.829Z,0.00
2022-10-06T04:37:25.819Z,0.00
2022-10-06T04:38:22.823Z,0.00
2022-10-06T04:39:22.837Z,0.00
2022-10-06T04:40:22.793Z,0.00
2022-10-06T04:41:22.773Z,0.00
2022-10-06T04:42:22.765Z,0.00
2022-10-06T04:43:22.763Z,0.00
2022-10-06T04:44:22.738Z,0.00
2022-10-06T04:45:22.735Z,0.00
2022-10-06T04:46:43.186Z,0.00
2022-10-06T04:47:23.710Z,0.00
2022-10-06T04:48:22.707Z,0.00
2022-10-06T04:49:22.721Z,0.00
2022-10-06T04:50:22.674Z,0.00
2022-10-06T04:51:22.665Z,0.00
2022-10-06T04:52:25.654Z,0.00
2022-10-06T04:53:22.654Z,0.00
2022-10-06T04:54:22.634Z,0.00
2022-10-06T04:55:23.625Z,0.00
2022-10-06T04:56:22.625Z,0.00
2022-10-06T04:57:22.605Z,0.00
2022-10-06T04:58:22.597Z,0.00
2022-10-06T04:59:22.591Z,0.00
2022-10-06T05:00:22.563Z,1.00
2022-10-06T05:01:22.621Z,0.00
2022-10-06T05:02:22.652Z,0.00
2022-10-06T05:03:22.503Z,2.00
2022-10-06T05:04:22.496Z,1.00
2022-10-06T05:05:22.457Z,1.00
2022-10-06T05:06:22.467Z,2.00
2022-10-06T05:07:25.449Z,2.00
2022-10-06T05:08:22.459Z,3.00
2022-10-06T05:09:22.431Z,6.00
2022-10-06T05:10:22.416Z,5.00
2022-10-06T05:11:25.696Z,7.00
2022-10-06T05:12:22.389Z,7.00
2022-10-06T05:13:22.386Z,12.00
2022-10-06T05:14:22.367Z,12.00
2022-10-06T05:15:22.357Z,14.00
2022-10-06T05:16:22.415Z,17.00
2022-10-06T05:17:22.334Z,22.00
2022-10-06T05:18:22.342Z,28.00
2022-10-06T05:19:22.321Z,34.00
2022-10-06T05:20:22.318Z,36.00
2022-10-06T05:21:22.288Z,46.00
2022-10-06T05:22:25.325Z,56.00
2022-10-06T05:23:22.303Z,65.00
2022-10-06T05:24:22.277Z,74.00
2022-10-06T05:25:22.252Z,89.00
2022-10-06T05:26:22.241Z,101.00
2022-10-06T05:27:22.238Z,117.00
2022-10-06T05:28:22.279Z,133.00
2022-10-06T05:29:22.208Z,151.00
2022-10-06T05:30:22.211Z,169.00
2022-10-06T05:31:22.237Z,194.00
2022-10-06T05:32:22.184Z,214.00
2022-10-06T05:33:22.266Z,235.00
2022-10-06T05:34:22.163Z,262.00
2022-10-06T05:35:22.145Z,289.00
2022-10-06T05:36:22.143Z,313.00
2022-10-06T05:37:25.133Z,339.00
2022-10-06T05:38:22.164Z,362.00
2022-10-06T05:39:22.108Z,392.00
2022-10-06T05:40:22.105Z,439.00
2022-10-06T05:41:22.095Z,483.00
2022-10-06T05:42:24.138Z,501.00
2022-10-06T05:43:22.056Z,524.00
2022-10-06T05:44:22.055Z,565.00
2022-10-06T05:45:22.044Z,606.00
2022-10-06T05:46:22.099Z,646.00
2022-10-06T05:47:22.033Z,690.00
2022-10-06T05:48:22.107Z,731.00
2022-10-06T05:49:22.020Z,774.00
2022-10-06T05:50:21.986Z,812.00
2022-10-06T05:51:24.577Z,853.00
2022-10-06T05:52:24.972Z,901.00
2022-10-06T05:53:21.984Z,945.00
2022-10-06T05:54:21.978Z,985.00
2022-10-06T05:55:21.945Z,1031.00
2022-10-06T05:56:21.930Z,1067.00
2022-10-06T05:57:21.957Z,1108.00
2022-10-06T05:58:21.917Z,1141.00
2022-10-06T05:59:21.890Z,1196.00
2022-10-06T06:00:21.898Z,1248.00
2022-10-06T06:01:21.911Z,1258.00
2022-10-06T06:02:21.964Z,1286.00
2022-10-06T06:03:21.856Z,1339.00
2022-10-06T06:04:21.862Z,1396.00
2022-10-06T06:05:21.840Z,1451.00
2022-10-06T06:06:21.822Z,1497.00
2022-10-06T06:07:24.850Z,1545.00
2022-10-06T06:08:21.818Z,1590.00
2022-10-06T06:09:21.799Z,1625.00
2022-10-06T06:10:21.785Z,1659.00
2022-10-06T06:11:21.770Z,1696.00
2022-10-06T06:12:21.785Z,1741.00
2022-10-06T06:13:21.750Z,1779.00
2022-10-06T06:14:21.744Z,1807.00
2022-10-06T06:15:21.737Z,1843.00
2022-10-06T06:16:21.747Z,1870.00
2022-10-06T06:17:21.860Z,1907.00
2022-10-06T06:18:21.780Z,1852.00
2022-10-06T06:19:24.853Z,1772.00
2022-10-06T06:20:21.683Z,1735.00
2022-10-06T06:21:21.718Z,1776.00
2022-10-06T06:22:24.661Z,1854.00
2022-10-06T06:23:21.664Z,1925.00
2022-10-06T06:24:21.641Z,2009.00
2022-10-06T06:25:21.621Z,2093.00
2022-10-06T06:26:21.614Z,2210.00
2022-10-06T06:27:21.608Z,2339.00
2022-10-06T06:28:21.648Z,2397.00
2022-10-06T06:29:21.585Z,2441.00
2022-10-06T06:30:21.575Z,2500.00
2022-10-06T06:31:21.601Z,2540.00
2022-10-06T06:32:21.582Z,2565.00
2022-10-06T06:33:21.543Z,2526.00
2022-10-06T06:34:21.536Z,2476.00
2022-10-06T06:35:21.525Z,2444.00
2022-10-06T06:36:21.506Z,2466.00
2022-10-06T06:37:24.535Z,2495.00
2022-10-06T06:38:21.519Z,2574.00
2022-10-06T06:39:21.490Z,2684.00
2022-10-06T06:40:21.467Z,2795.00
2022-10-06T06:41:21.458Z,2876.00
2022-10-06T06:42:21.474Z,2914.00
2022-10-06T06:43:21.443Z,2977.00
2022-10-06T06:44:21.435Z,3017.00
2022-10-06T06:45:21.416Z,3054.00
2022-10-06T06:46:21.526Z,3096.00
2022-10-06T06:47:23.131Z,3138.00
2022-10-06T06:48:21.387Z,3181.00
2022-10-06T06:49:21.377Z,3212.00
2022-10-06T06:50:21.376Z,3209.00
2022-10-06T06:51:21.355Z,3256.00
2022-10-06T06:52:24.367Z,3301.00
2022-10-06T06:53:21.381Z,3373.00
2022-10-06T06:54:21.330Z,3338.00
2022-10-06T06:55:21.321Z,3388.00
2022-10-06T06:56:21.309Z,3430.00
2022-10-06T06:57:21.309Z,3500.00
2022-10-06T06:58:21.291Z,3554.00
2022-10-06T06:59:21.270Z,3583.00
2022-10-06T07:00:21.259Z,3618.00
2022-10-06T07:01:21.298Z,3643.00
2022-10-06T07:02:21.289Z,3674.00
2022-10-06T07:03:33.010Z,3709.00
2022-10-06T07:04:22.234Z,3747.00
2022-10-06T07:05:21.211Z,3783.00
2022-10-06T07:06:23.497Z,3811.00
2022-10-06T07:07:24.191Z,3848.00
2022-10-06T07:08:21.202Z,3893.00
2022-10-06T07:09:21.171Z,3943.00
2022-10-06T07:10:21.159Z,3968.00
2022-10-06T07:11:21.194Z,4007.00
2022-10-06T07:12:21.146Z,4062.00
2022-10-06T07:13:21.128Z,4114.00
2022-10-06T07:14:21.121Z,4160.00
2022-10-06T07:15:21.101Z,4213.00
2022-10-06T07:16:21.262Z,2107.00
2022-10-06T07:17:21.081Z,2654.00
2022-10-06T07:18:21.081Z,9596.00
2022-10-06T07:19:24.604Z,9779.00
2022-10-06T07:20:21.058Z,9409.00
2022-10-06T07:21:21.044Z,11256.00
2022-10-06T07:22:24.026Z,13883.00
2022-10-06T07:23:21.037Z,16831.00
2022-10-06T07:24:21.006Z,16704.00
2022-10-06T07:25:25.442Z,14072.00
2022-10-06T07:26:20.985Z,16895.00
2022-10-06T07:27:21.017Z,17048.00
2022-10-06T07:28:21.010Z,11108.00
2022-10-06T07:29:20.965Z,6611.00
2022-10-06T07:30:20.940Z,7914.00
2022-10-06T07:31:20.992Z,11634.00
2022-10-06T07:32:20.939Z,14057.00
2022-10-06T07:33:20.913Z,9981.00
2022-10-06T07:34:20.901Z,11616.00
2022-10-06T07:35:20.891Z,13853.00
2022-10-06T07:36:20.934Z,14869.00
2022-10-06T07:37:23.876Z,12646.00
2022-10-06T07:38:20.889Z,7568.00
2022-10-06T07:39:20.848Z,7670.00
2022-10-06T07:40:20.850Z,11885.00
2022-10-06T07:41:20.903Z,18156.00
2022-10-06T07:42:20.841Z,21709.00
2022-10-06T07:43:20.818Z,19875.00
2022-10-06T07:44:20.799Z,15725.00
2022-10-06T07:45:20.780Z,16214.00
2022-10-06T07:46:20.829Z,18472.00
2022-10-06T07:47:20.931Z,17196.00
2022-10-06T07:48:20.758Z,13531.00
2022-10-06T07:49:20.751Z,12852.00
2022-10-06T07:50:20.743Z,14750.00
2022-10-06T07:51:20.760Z,17554.00
2022-10-06T07:52:23.711Z,17911.00
2022-10-06T07:53:20.723Z,16095.00
2022-10-06T07:54:23.998Z,15985.00
2022-10-06T07:55:20.690Z,18760.00
2022-10-06T07:56:20.683Z,15942.00
2022-10-06T07:57:20.664Z,15571.00
2022-10-06T07:58:20.756Z,17623.00
2022-10-06T07:59:20.644Z,18800.00
2022-10-06T08:00:20.729Z,16045.00
2022-10-06T08:01:20.703Z,14636.00
2022-10-06T08:02:20.684Z,14599.00
2022-10-06T08:03:20.625Z,13356.00
2022-10-06T08:04:20.604Z,12935.00
2022-10-06T08:05:20.574Z,15357.00
2022-10-06T08:06:20.574Z,17154.00
2022-10-06T08:07:23.595Z,18856.00
2022-10-06T08:08:20.557Z,21647.00
2022-10-06T08:09:20.731Z,21387.00
2022-10-06T08:10:20.527Z,20172.00
2022-10-06T08:11:20.526Z,21677.00
2022-10-06T08:12:20.546Z,22069.00
2022-10-06T08:13:20.503Z,19941.00
2022-10-06T08:14:20.498Z,20067.00
2022-10-06T08:15:20.476Z,21060.00
2022-10-06T08:16:20.605Z,20724.00
2022-10-06T08:17:20.449Z,20755.00
2022-10-06T08:18:44.602Z,23673.00
2022-10-06T08:19:21.590Z,22761.00
2022-10-06T08:20:20.446Z,4384.00
2022-10-06T08:21:20.442Z,11985.00
2022-10-06T08:22:23.397Z,12019.00
2022-10-06T08:23:20.400Z,12490.00
2022-10-06T08:25:20.362Z,16667.00
2022-10-06T08:26:20.390Z,12524.00
2022-10-06T08:27:20.351Z,10562.00
2022-10-06T08:28:20.390Z,11083.00
2022-10-06T08:29:20.323Z,12652.00
2022-10-06T08:30:20.315Z,14493.00
2022-10-06T08:31:20.382Z,17409.00
2022-10-06T08:32:20.286Z,19554.00
2022-10-06T08:33:21.568Z,21238.00
2022-10-06T08:34:20.262Z,21551.00
2022-10-06T08:35:20.244Z,18823.00
2022-10-06T08:36:20.249Z,20062.00
2022-10-06T08:37:24.261Z,24542.00
2022-10-06T08:38:20.253Z,21649.00
2022-10-06T08:39:20.215Z,13501.00
2022-10-06T08:40:20.276Z,14176.00
2022-10-06T08:41:20.196Z,19693.00
2022-10-06T08:42:20.264Z,23239.00
2022-10-06T08:43:20.178Z,20953.00
2022-10-06T08:44:20.156Z,18025.00
2022-10-06T08:45:20.158Z,18137.00
2022-10-06T08:46:23.898Z,19662.00
2022-10-06T08:47:20.125Z,23577.00
2022-10-06T08:48:20.118Z,28840.00
2022-10-06T08:49:20.121Z,30708.00
2022-10-06T08:50:20.143Z,28388.00
2022-10-06T08:51:20.077Z,22916.00
2022-10-06T08:52:23.078Z,15646.00
2022-10-06T08:53:20.078Z,11146.00
2022-10-06T08:54:20.056Z,13662.00
2022-10-06T08:55:20.039Z,18333.00
2022-10-06T08:57:58.212Z,23848.00
2022-10-06T08:58:57.943Z,23449.00
2022-10-06T08:59:58.233Z,20520.00
2022-10-06T09:00:57.970Z,16033.00
2022-10-06T09:01:57.998Z,15862.00
2022-10-06T09:02:57.911Z,18128.00
2022-10-06T09:03:57.900Z,18336.00
2022-10-06T09:04:57.900Z,15055.00
2022-10-06T09:05:57.872Z,13232.00
2022-10-06T09:06:57.893Z,17146.00
2022-10-06T09:07:57.853Z,22906.00
2022-10-06T09:08:57.852Z,23200.00
2022-10-06T09:09:58.176Z,16271.00
2022-10-06T09:11:00.823Z,9567.00
2022-10-06T09:11:57.837Z,10973.00
2022-10-06T09:12:57.802Z,13404.00
2022-10-06T09:13:57.794Z,11572.00
2022-10-06T09:14:57.789Z,8514.00
2022-10-06T09:15:57.832Z,11634.00
2022-10-06T09:16:57.766Z,18964.00
2022-10-06T09:17:57.795Z,23643.00
2022-10-06T09:19:08.149Z,21041.00
2022-10-06T09:19:58.082Z,13662.00
2022-10-06T09:20:57.723Z,8454.00
2022-10-06T09:21:57.791Z,9811.00
2022-10-06T09:22:57.701Z,16122.00
2022-10-06T09:23:57.733Z,19241.00
2022-10-06T09:24:57.704Z,17971.00
2022-10-06T09:26:00.748Z,15712.00
2022-10-06T09:26:57.862Z,10834.00
2022-10-06T09:27:57.704Z,7379.00
2022-10-06T09:28:57.669Z,7347.00
2022-10-06T09:29:58.027Z,10861.00
2022-10-06T09:30:57.707Z,14305.00
2022-10-06T09:31:57.612Z,18497.00
2022-10-06T09:32:57.613Z,21901.00
2022-10-06T09:33:57.594Z,24931.00
2022-10-06T09:34:57.589Z,28928.00
2022-10-06T09:35:57.708Z,33735.00
2022-10-06T09:37:01.080Z,32946.00
2022-10-06T09:37:57.557Z,27401.00
2022-10-06T09:38:58.548Z,21297.00
2022-10-06T09:39:57.941Z,17657.00
2022-10-06T09:41:00.705Z,12866.00
2022-10-06T09:42:06.862Z,9120.00
2022-10-06T09:42:57.492Z,7812.00
2022-10-06T09:43:57.504Z,7945.00
2022-10-06T09:44:57.478Z,12892.00
2022-10-06T09:45:57.510Z,19540.00
2022-10-06T09:46:57.487Z,22570.00
2022-10-06T09:47:57.440Z,21239.00
2022-10-06T09:48:57.437Z,17643.00
2022-10-06T09:49:57.964Z,16039.00
2022-10-06T09:50:57.416Z,16270.00
2022-10-06T09:51:57.430Z,16297.00
2022-10-06T09:52:57.398Z,17099.00
2022-10-06T09:53:57.379Z,16198.00
2022-10-06T09:54:57.370Z,17811.00
2022-10-06T09:56:00.375Z,20164.00
2022-10-06T09:56:57.379Z,22153.00
2022-10-06T09:57:57.378Z,23845.00
2022-10-06T09:58:57.380Z,24940.00
2022-10-06T09:59:57.841Z,22710.00
2022-10-06T10:00:57.342Z,17052.00
2022-10-06T10:01:57.293Z,13098.00
2022-10-06T10:02:57.406Z,10892.00
2022-10-06T10:04:18.790Z,11484.00
2022-10-06T10:04:58.260Z,13549.00
2022-10-06T10:05:57.255Z,14223.00
2022-10-06T10:06:57.252Z,11122.00
2022-10-06T10:07:57.278Z,8111.00
2022-10-06T10:08:57.229Z,9919.00
2022-10-06T10:09:57.528Z,13816.00
2022-10-06T10:11:00.204Z,18840.00
2022-10-06T10:11:57.217Z,24110.00
2022-10-06T10:12:57.185Z,23743.00
2022-10-06T10:13:57.178Z,18058.00
2022-10-06T10:14:57.156Z,10742.00
2022-10-06T10:15:57.214Z,9835.00
2022-10-06T10:16:57.141Z,15829.00
2022-10-06T10:17:57.161Z,25057.00
2022-10-06T10:18:57.129Z,75058.00
2022-10-06T10:19:57.572Z,74907.00
2022-10-06T10:20:57.110Z,74300.00
2022-10-06T10:21:57.090Z,73987.00
2022-10-06T10:22:57.072Z,74543.00
2022-10-06T10:23:57.071Z,75303.00
2022-10-06T10:24:57.063Z,75945.00
2022-10-06T10:26:00.052Z,76296.00
2022-10-06T10:26:57.054Z,76194.00
2022-10-06T10:27:57.247Z,75642.00
2022-10-06T10:28:57.024Z,75435.00
2022-10-06T10:29:57.215Z,75512.00
2022-10-06T10:30:57.071Z,75898.00
2022-10-06T10:31:57.010Z,76244.00
2022-10-06T10:32:56.974Z,76564.00
2022-10-06T10:34:11.924Z,77001.00
2022-10-06T10:34:58.279Z,76815.00
2022-10-06T10:35:56.952Z,75605.00
2022-10-06T10:36:56.935Z,74147.00
2022-10-06T10:37:56.965Z,73964.00
2022-10-06T10:38:56.912Z,74630.00
2022-10-06T10:39:56.915Z,76219.00
2022-10-06T10:40:59.895Z,77178.00
2022-10-06T10:41:56.898Z,77230.00
2022-10-06T10:42:56.874Z,76625.00
2022-10-06T10:43:59.616Z,75701.00
2022-10-06T10:44:57.130Z,74837.00
2022-10-06T10:45:56.847Z,74937.00
2022-10-06T10:46:56.877Z,75273.00
2022-10-06T10:47:56.817Z,75845.00
2022-10-06T10:48:56.868Z,76428.00
2022-10-06T10:49:56.799Z,76619.00
2022-10-06T10:50:56.790Z,75965.00
2022-10-06T10:51:56.860Z,75422.00
2022-10-06T10:52:56.870Z,75697.00
2022-10-06T10:53:56.760Z,76560.00
2022-10-06T10:54:56.935Z,76906.00
2022-10-06T10:55:59.736Z,76621.00
2022-10-06T10:56:56.957Z,76154.00
2022-10-06T10:57:56.721Z,14491.00
2022-10-06T10:58:56.711Z,77000.00
2022-10-06T10:59:56.704Z,77206.00
2022-10-06T11:00:56.780Z,76663.00
2022-10-06T11:01:56.893Z,75529.00
2022-10-06T11:02:56.671Z,74729.00
2022-10-06T11:03:56.801Z,74715.00
2022-10-06T11:04:57.111Z,75160.00
2022-10-06T11:05:56.633Z,75439.00
2022-10-06T11:06:56.624Z,75661.00
2022-10-06T11:07:56.614Z,76184.00
2022-10-06T11:08:56.609Z,76736.00
2022-10-06T11:09:56.588Z,76753.00
2022-10-06T11:10:59.575Z,76197.00
2022-10-06T11:11:56.667Z,75811.00
2022-10-06T11:12:56.606Z,76205.00
2022-10-06T11:13:56.560Z,76840.00
2022-10-06T11:14:56.941Z,77057.00
2022-10-06T11:15:56.577Z,77146.00
2022-10-06T11:16:56.527Z,76982.00
2022-10-06T11:17:56.555Z,76673.00
2022-10-06T11:18:56.522Z,76265.00
2022-10-06T11:19:56.488Z,76471.00
2022-10-06T11:20:56.484Z,77088.00
2022-10-06T11:21:56.798Z,77286.00
2022-10-06T11:22:56.462Z,76707.00
2022-10-06T11:23:56.458Z,75767.00
2022-10-06T11:24:56.824Z,75337.00
2022-10-06T11:25:59.474Z,75168.00
2022-10-06T11:26:56.434Z,75391.00
2022-10-06T11:27:56.528Z,75905.00
2022-10-06T11:28:56.393Z,75946.00
2022-10-06T11:29:56.647Z,75628.00
2022-10-06T11:30:56.385Z,75349.00
2022-10-06T11:31:56.395Z,74767.00
2022-10-06T11:32:56.376Z,74511.00
2022-10-06T11:33:56.344Z,75062.00
2022-10-06T11:34:56.337Z,75493.00
2022-10-06T11:35:56.326Z,75587.00
2022-10-06T11:36:56.337Z,75746.00
2022-10-06T11:37:56.308Z,75830.00
2022-10-06T11:38:56.299Z,75461.00
2022-10-06T11:39:56.647Z,74995.00
2022-10-06T11:40:59.276Z,74700.00
2022-10-06T11:41:56.283Z,74705.00
2022-10-06T11:42:56.257Z,74501.00
2022-10-06T11:43:56.250Z,74715.00
2022-10-06T11:44:56.564Z,75492.00
2022-10-06T11:45:56.298Z,76090.00
2022-10-06T11:46:56.213Z,76480.00
2022-10-06T11:47:56.201Z,76361.00
2022-10-06T11:48:56.191Z,76682.00
2022-10-06T11:49:56.185Z,77609.00
2022-10-06T11:50:56.171Z,78621.00
2022-10-06T11:51:59.567Z,79143.00
2022-10-06T11:52:56.146Z,78912.00
2022-10-06T11:53:56.137Z,78414.00
2022-10-06T11:54:56.432Z,77623.00
2022-10-06T11:55:59.123Z,76413.00
2022-10-06T11:56:56.113Z,75658.00
2022-10-06T11:57:56.092Z,76054.00
2022-10-06T11:58:57.100Z,76519.00
2022-10-06T11:59:56.079Z,76463.00
2022-10-06T12:00:56.099Z,75632.00
2022-10-06T12:01:56.258Z,75326.00
2022-10-06T12:02:56.236Z,76504.00
2022-10-06T12:03:56.063Z,77919.00
2022-10-06T12:04:56.433Z,78187.00
2022-10-06T12:05:57.022Z,77447.00
2022-10-06T12:06:56.001Z,76707.00
2022-10-06T12:07:55.986Z,76807.00
2022-10-06T12:08:56.049Z,77051.00
2022-10-06T12:09:55.973Z,77215.00
2022-10-06T12:10:58.959Z,77207.00
2022-10-06T12:11:55.968Z,77269.00
2022-10-06T12:13:21.277Z,76982.00
2022-10-06T12:17:18.328Z,75784.00
2022-10-06T12:17:56.881Z,75372.00
2022-10-06T12:18:55.916Z,75016.00
2022-10-06T12:19:55.864Z,74857.00
2022-10-06T12:20:55.860Z,75023.00
2022-10-06T12:21:55.840Z,75763.00
2022-10-06T12:22:55.841Z,76682.00
2022-10-06T12:23:55.824Z,77284.00
2022-10-06T12:24:56.304Z,77686.00
2022-10-06T12:25:58.803Z,77875.00
2022-10-06T12:26:55.805Z,77256.00
2022-10-06T12:27:55.812Z,76394.00
2022-10-06T12:28:55.770Z,75845.00
2022-10-06T12:29:56.191Z,75725.00
2022-10-06T12:30:55.792Z,76119.00
2022-10-06T12:31:55.737Z,76123.00
2022-10-06T12:32:55.730Z,76355.00